Time;durP1;ratioP1;P1;durP2;ratioP2;P2;SDS_P1;SDS_P2;PMS_P1;PMS_P2;Temp;Humidity;BMP_temperature;BMP_pressure;BME280_temperature;BME280_humidity;BME280_pressure;Samples;Min_cycle;Max_cycle;Signal;HPM_P1;HPM_P2
2021/05/05 00:00:39;;;;;;;9.98;4.60;;;12.40;99.90;;;;;;6183003;23;19993;-79
2021/05/05 00:03:05;;;;;;;18.55;4.60;;;12.30;99.90;;;;;;6183155;23;20032;-79
2021/05/05 00:05:33;;;;;;;16.83;4.75;;;12.20;99.90;;;;;;6184344;23;20008;-80
2021/05/05 00:07:59;;;;;;;11.02;4.60;;;12.20;99.90;;;;;;6184459;23;20009;-79
2021/05/05 00:10:25;;;;;;;28.73;5.40;;;12.20;99.90;;;;;;6184314;23;20001;-79
2021/05/05 00:12:52;;;;;;;24.30;4.97;;;12.10;99.90;;;;;;6158331;23;20009;-80
2021/05/05 00:15:21;;;;;;;13.93;3.95;;;12.00;99.90;;;;;;6182850;23;20001;-79
2021/05/05 00:17:47;;;;;;;12.23;4.93;;;12.00;99.90;;;;;;6182794;23;20004;-79
2021/05/05 00:20:14;;;;;;;9.80;3.95;;;12.00;99.90;;;;;;6184254;23;20025;-79
2021/05/05 00:22:40;;;;;;;17.05;5.40;;;12.10;99.90;;;;;;6184673;23;20001;-79
2021/05/05 00:25:09;;;;;;;19.20;4.45;;;12.10;99.90;;;;;;6184461;23;20040;-79
2021/05/05 00:27:35;;;;;;;20.42;4.07;;;12.20;99.90;;;;;;6158165;23;20527;-79
2021/05/05 00:30:01;;;;;;;17.65;4.10;;;12.30;99.90;;;;;;6184217;23;19997;-79
2021/05/05 00:32:27;;;;;;;17.95;3.97;;;12.50;99.90;;;;;;6183004;23;20005;-79
2021/05/05 00:34:53;;;;;;;12.50;4.50;;;12.50;99.90;;;;;;6195785;23;20087;-79
2021/05/05 00:37:19;;;;;;;19.05;5.68;;;12.50;99.90;;;;;;6212929;23;20095;-80
2021/05/05 00:39:45;;;;;;;13.43;4.38;;;12.40;99.90;;;;;;6214361;23;20589;-80
2021/05/05 00:42:12;;;;;;;11.40;3.80;;;12.40;99.90;;;;;;6212911;23;20000;-79
2021/05/05 00:44:38;;;;;;;15.50;4.20;;;12.40;99.90;;;;;;6214336;23;20007;-79
2021/05/05 00:47:04;;;;;;;13.32;4.05;;;12.30;99.90;;;;;;6214287;23;20025;-79
2021/05/05 00:49:30;;;;;;;16.33;4.10;;;12.30;99.90;;;;;;6214043;23;20069;-79
2021/05/05 00:51:56;;;;;;;16.80;4.15;;;12.20;99.90;;;;;;6212845;23;20059;-79
2021/05/05 00:54:22;;;;;;;18.47;5.57;;;12.20;99.90;;;;;;6213755;23;20043;-80
2021/05/05 00:56:49;;;;;;;17.08;4.47;;;12.20;99.90;;;;;;6214031;23;20239;-79
2021/05/05 00:59:15;;;;;;;14.13;4.03;;;12.20;99.90;;;;;;6214129;23;19993;-80
2021/05/05 01:01:42;;;;;;;16.60;4.03;;;12.20;99.90;;;;;;6214523;23;20331;-80
2021/05/05 01:04:10;;;;;;;10.93;3.83;;;12.30;99.90;;;;;;6186516;23;20019;-80
2021/05/05 01:06:37;;;;;;;8.73;3.80;;;12.20;99.90;;;;;;6214236;23;20062;-80
2021/05/05 01:09:04;;;;;;;9.25;4.38;;;12.20;99.90;;;;;;6213922;23;20363;-79
2021/05/05 01:11:30;;;;;;;12.13;3.85;;;12.30;99.90;;;;;;6212757;23;20095;-79
2021/05/05 01:13:56;;;;;;;12.77;4.28;;;12.30;99.90;;;;;;6214240;23;20054;-79
2021/05/05 01:16:22;;;;;;;15.63;3.88;;;12.30;99.90;;;;;;6214285;23;20431;-80
2021/05/05 01:18:49;;;;;;;18.00;4.53;;;12.30;99.90;;;;;;6213658;23;20028;-79
2021/05/05 01:21:16;;;;;;;6.80;3.53;;;12.30;99.90;;;;;;6214010;23;20004;-80
2021/05/05 01:23:43;;;;;;;;;;;12.30;99.90;;;;;;6214801;23;20000;-80
2021/05/05 01:26:09;;;;;;;17.42;3.95;;;12.20;99.90;;;;;;6214404;23;19915;-79
2021/05/05 01:28:41;;;;;;;10.03;3.70;;;12.20;99.90;;;;;;6213934;23;20088;-79
2021/05/05 01:31:11;;;;;;;14.77;4.03;;;12.20;99.90;;;;;;6214224;23;20001;-79
2021/05/05 01:33:38;;;;;;;11.52;4.25;;;12.20;99.90;;;;;;6213396;23;20001;-79
2021/05/05 01:36:04;;;;;;;;;;;12.20;99.90;;;;;;6212498;23;20021;-79
2021/05/05 01:38:31;;;;;;;16.75;3.90;;;12.20;99.90;;;;;;6212160;23;19979;-79
2021/05/05 01:40:57;;;;;;;11.57;4.20;;;12.20;99.90;;;;;;6213695;23;20007;-80
2021/05/05 01:43:23;;;;;;;12.13;3.63;;;12.10;99.90;;;;;;6213017;23;20099;-79
2021/05/05 01:45:49;;;;;;;12.20;3.70;;;12.10;99.90;;;;;;6214172;23;20099;-80
2021/05/05 01:48:17;;;;;;;15.32;4.00;;;12.10;99.90;;;;;;6216935;23;20007;-80
2021/05/05 01:50:43;;;;;;;10.65;4.10;;;12.20;99.90;;;;;;6217638;23;20008;-79
2021/05/05 01:53:09;;;;;;;11.48;3.95;;;12.20;99.90;;;;;;6216895;23;19996;-80
2021/05/05 01:55:35;;;;;;;16.05;3.80;;;12.10;99.90;;;;;;6216411;23;19996;-79
2021/05/05 01:58:01;;;;;;;10.93;3.92;;;12.10;99.90;;;;;;6214391;23;20008;-81
2021/05/05 02:00:30;;;;;;;14.02;4.28;;;12.10;99.90;;;;;;6216420;23;20000;-80
2021/05/05 02:02:57;;;;;;;17.23;4.80;;;12.00;99.90;;;;;;6215318;23;20008;-80
2021/05/05 02:05:23;;;;;;;10.30;4.68;;;12.00;99.90;;;;;;6213030;23;20046;-80
2021/05/05 02:07:50;;;;;;;13.68;3.85;;;11.90;99.90;;;;;;6213991;23;20036;-80
2021/05/05 02:10:18;;;;;;;12.82;3.45;;;11.90;99.90;;;;;;6213687;23;20005;-79
2021/05/05 02:12:45;;;;;;;7.07;3.45;;;11.80;99.90;;;;;;6213316;23;20035;-79
2021/05/05 02:15:14;;;;;;;10.35;3.50;;;11.80;99.90;;;;;;6213313;23;20075;-79
2021/05/05 02:17:41;;;;;;;14.50;4.32;;;11.90;99.90;;;;;;6215073;23;20000;-80
2021/05/05 02:20:10;;;;;;;18.88;3.83;;;11.80;99.90;;;;;;6212981;23;20009;-79
2021/05/05 02:22:38;;;;;;;11.85;4.70;;;11.80;99.90;;;;;;6213177;23;20009;-79
2021/05/05 02:25:05;;;;;;;12.65;3.55;;;11.80;99.90;;;;;;6214350;23;20004;-80
2021/05/05 02:27:35;;;;;;;12.73;5.15;;;11.80;99.90;;;;;;6214777;23;20009;-79
2021/05/05 02:30:03;;;;;;;17.20;4.10;;;11.80;99.90;;;;;;6214677;23;20074;-79
2021/05/05 02:32:30;;;;;;;17.55;4.05;;;11.80;99.90;;;;;;6214066;23;20104;-79
2021/05/05 02:34:56;;;;;;;16.00;4.15;;;11.80;99.90;;;;;;6187054;23;20130;-80
2021/05/05 02:37:24;;;;;;;16.02;3.83;;;11.80;99.90;;;;;;6214572;23;20055;-79
2021/05/05 02:39:50;;;;;;;;;;;11.80;99.90;;;;;;6212621;23;20335;-79
2021/05/05 02:42:18;;;;;;;8.65;3.70;;;11.90;99.90;;;;;;6212030;23;19910;-79
2021/05/05 02:44:48;;;;;;;17.38;5.20;;;11.90;99.90;;;;;;6214093;23;20047;-79
2021/05/05 02:47:16;;;;;;;14.50;3.53;;;11.90;99.90;;;;;;6213567;23;20451;-79
2021/05/05 02:49:42;;;;;;;24.63;4.22;;;12.00;99.90;;;;;;6213695;23;20055;-79
2021/05/05 02:52:39;;;;;;;14.25;3.92;;;11.90;99.90;;;;;;6214058;23;20359;-81
2021/05/05 02:55:08;;;;;;;6.80;3.10;;;12.00;99.90;;;;;;6213373;23;20004;-81
2021/05/05 02:57:34;;;;;;;11.27;3.63;;;11.90;99.90;;;;;;6212570;23;20506;-79
2021/05/05 03:00:00;;;;;;;10.10;3.77;;;11.90;99.90;;;;;;6214355;23;20043;-79
2021/05/05 03:02:26;;;;;;;11.90;3.60;;;11.80;99.90;;;;;;6212650;23;20005;-80
2021/05/05 03:04:53;;;;;;;14.37;4.13;;;11.70;99.90;;;;;;6211631;23;20005;-79
2021/05/05 03:07:19;;;;;;;10.63;3.63;;;11.50;99.90;;;;;;6187000;23;20263;-78
2021/05/05 03:09:45;;;;;;;11.63;3.63;;;11.50;99.90;;;;;;6213574;23;20048;-79
2021/05/05 03:12:11;;;;;;;11.73;3.72;;;11.40;99.90;;;;;;6215750;23;20031;-79
2021/05/05 03:14:37;;;;;;;13.32;4.40;;;11.40;99.90;;;;;;6215336;23;19997;-79
2021/05/05 03:17:04;;;;;;;9.43;3.38;;;11.30;99.90;;;;;;6215367;23;20024;-79
2021/05/05 03:19:30;;;;;;;9.30;3.78;;;11.40;99.90;;;;;;6213181;23;20083;-79
2021/05/05 03:21:57;;;;;;;11.37;3.87;;;11.40;99.90;;;;;;6214266;23;20402;-79
2021/05/05 03:24:23;;;;;;;8.83;3.07;;;11.50;99.90;;;;;;6188368;23;20031;-79
2021/05/05 03:26:49;;;;;;;17.17;4.05;;;11.50;99.90;;;;;;6188677;23;20344;-79
2021/05/05 03:29:16;;;;;;;14.45;3.65;;;11.50;99.90;;;;;;6215108;23;20001;-79
2021/05/05 03:31:43;;;;;;;10.57;3.53;;;11.40;99.90;;;;;;6215822;23;20086;-79
2021/05/05 03:34:10;;;;;;;12.30;3.83;;;11.40;99.90;;;;;;6214648;23;20332;-79
2021/05/05 03:36:36;;;;;;;9.30;3.10;;;11.30;99.90;;;;;;6215212;23;20000;-79
2021/05/05 03:39:05;;;;;;;12.90;3.87;;;11.30;99.90;;;;;;6215822;23;20066;-79
2021/05/05 03:41:32;;;;;;;10.55;3.42;;;11.30;99.90;;;;;;6215754;23;20583;-79
2021/05/05 03:43:58;;;;;;;11.70;4.80;;;11.30;99.90;;;;;;6213923;23;20336;-79
2021/05/05 03:46:25;;;;;;;10.47;3.47;;;11.30;99.90;;;;;;6215284;23;20390;-79
2021/05/05 03:48:52;;;;;;;11.88;4.28;;;11.30;99.90;;;;;;6214497;23;20071;-79
2021/05/05 03:51:18;;;;;;;11.93;3.28;;;11.30;99.90;;;;;;6215279;23;20008;-78
2021/05/05 03:53:44;;;;;;;16.43;3.47;;;11.40;99.90;;;;;;6213295;23;20001;-79
2021/05/05 03:56:12;;;;;;;7.87;2.80;;;11.50;99.90;;;;;;6214904;23;20027;-80
2021/05/05 03:58:38;;;;;;;14.90;3.00;;;11.60;99.90;;;;;;6215106;23;20232;-84
2021/05/05 04:01:04;;;;;;;15.20;3.00;;;11.70;99.90;;;;;;6188862;23;20008;-84
2021/05/05 04:03:30;;;;;;;9.15;3.08;;;11.80;99.90;;;;;;6213425;23;20054;-84
2021/05/05 04:05:56;;;;;;;12.50;3.45;;;11.90;99.90;;;;;;6215231;23;20008;-83
2021/05/05 04:08:23;;;;;;;14.40;3.63;;;12.00;99.90;;;;;;6215570;23;20008;-84
2021/05/05 04:10:49;;;;;;;9.90;3.13;;;12.00;99.90;;;;;;6213694;23;20363;-84
2021/05/05 04:13:15;;;;;;;15.10;3.65;;;12.10;99.90;;;;;;6213674;23;20444;-85
2021/05/05 04:15:41;;;;;;;10.82;3.45;;;12.10;99.90;;;;;;6188977;23;20340;-85
2021/05/05 04:18:08;;;;;;;14.00;3.17;;;12.10;99.90;;;;;;6213310;23;20015;-84
2021/05/05 04:20:34;;;;;;;19.45;3.67;;;12.10;99.90;;;;;;6215904;23;20239;-91
2021/05/05 04:23:01;;;;;;;11.43;3.80;;;12.10;99.90;;;;;;6215645;23;20004;-87
2021/05/05 04:25:27;;;;;;;11.18;3.28;;;12.10;99.90;;;;;;6214545;23;20004;-89
2021/05/05 04:27:53;;;;;;;9.93;3.15;;;12.20;99.90;;;;;;6213851;23;20012;-87
2021/05/05 04:30:20;;;;;;;8.15;3.00;;;12.20;99.90;;;;;;6217309;23;20001;-88
2021/05/05 04:32:49;;;;;;;13.07;3.20;;;12.20;99.90;;;;;;6216843;23;20550;-87
2021/05/05 04:35:16;;;;;;;10.05;3.22;;;12.20;99.90;;;;;;6214045;23;20325;-87
2021/05/05 04:37:43;;;;;;;14.73;4.72;;;12.20;99.90;;;;;;6216370;23;20001;-87
2021/05/05 04:40:13;;;;;;;10.03;3.40;;;12.10;99.90;;;;;;6214526;23;20000;-86
2021/05/05 04:42:40;;;;;;;7.88;3.15;;;12.10;99.90;;;;;;6215369;23;20028;-88
2021/05/05 04:45:08;;;;;;;7.20;3.60;;;12.10;99.90;;;;;;6216435;23;20001;-88
2021/05/05 04:47:36;;;;;;;10.80;3.00;;;12.20;99.90;;;;;;6214798;23;20498;-87
2021/05/05 04:50:08;;;;;;;7.90;2.90;;;12.20;99.90;;;;;;6214242;23;20004;-89
2021/05/05 04:52:34;;;;;;;13.57;3.85;;;12.20;99.90;;;;;;6216280;23;20467;-88
2021/05/05 04:55:01;;;;;;;13.52;3.38;;;12.40;99.90;;;;;;6214540;23;20000;-86
2021/05/05 04:57:27;;;;;;;14.82;3.08;;;12.40;99.90;;;;;;6215077;23;20004;-87
2021/05/05 04:59:52;;;;;;;12.05;3.53;;;12.40;99.90;;;;;;6213002;23;20075;-87
2021/05/05 05:02:18;;;;;;;12.98;2.88;;;12.50;99.90;;;;;;6214144;23;20001;-82
2021/05/05 05:04:44;;;;;;;7.75;2.63;;;12.50;99.90;;;;;;6213202;23;20005;-85
2021/05/05 05:07:10;;;;;;;11.05;4.00;;;12.50;99.90;;;;;;6213337;23;20013;-84
2021/05/05 05:09:36;;;;;;;8.43;2.90;;;12.60;99.90;;;;;;6211682;23;20035;-82
2021/05/05 05:12:02;;;;;;;7.90;3.00;;;12.70;99.90;;;;;;6213586;23;20009;-85
2021/05/05 05:14:28;;;;;;;8.45;3.67;;;12.80;99.90;;;;;;6213992;23;20007;-86
2021/05/05 05:16:55;;;;;;;13.57;3.60;;;12.80;99.90;;;;;;6187288;23;20032;-84
2021/05/05 05:19:21;;;;;;;9.68;3.33;;;12.80;99.90;;;;;;6213314;23;20011;-86
2021/05/05 05:21:47;;;;;;;13.02;3.55;;;12.90;99.90;;;;;;6213503;23;20075;-85
2021/05/05 05:24:13;;;;;;;13.43;4.22;;;12.90;99.90;;;;;;6211873;23;20455;-84
2021/05/05 05:26:39;;;;;;;9.30;2.90;;;13.00;99.90;;;;;;6213944;23;20013;-85
2021/05/05 05:29:06;;;;;;;10.07;3.03;;;13.00;99.90;;;;;;6214152;23;20050;-83
2021/05/05 05:31:32;;;;;;;;;;;13.20;99.90;;;;;;6187522;23;20009;-83
2021/05/05 05:33:58;;;;;;;10.93;4.20;;;13.30;99.90;;;;;;6213820;23;20307;-82
2021/05/05 05:36:24;;;;;;;5.85;2.28;;;13.30;99.90;;;;;;6213120;23;20015;-83
2021/05/05 05:38:50;;;;;;;6.82;2.70;;;13.40;99.90;;;;;;6212901;23;19996;-79
2021/05/05 05:41:15;;;;;;;9.05;2.92;;;13.50;99.90;;;;;;6212301;23;20013;-85
2021/05/05 05:43:41;;;;;;;13.23;2.80;;;13.50;99.90;;;;;;6212632;23;20112;-83
2021/05/05 05:46:07;;;;;;;11.80;2.85;;;13.60;99.90;;;;;;6187129;23;20016;-81
2021/05/05 05:48:34;;;;;;;7.05;3.03;;;13.70;99.90;;;;;;6213234;23;20039;-83
2021/05/05 05:51:00;;;;;;;;;;;13.80;99.90;;;;;;6212621;23;20058;-84
2021/05/05 05:53:26;;;;;;;8.73;2.85;;;13.90;99.90;;;;;;6211646;23;19982;-84
2021/05/05 05:55:52;;;;;;;11.48;2.88;;;14.00;99.90;;;;;;6184863;23;20001;-81
2021/05/05 05:58:18;;;;;;;10.57;3.08;;;14.10;99.90;;;;;;6211058;23;20008;-82
2021/05/05 06:00:43;;;;;;;13.88;3.30;;;14.20;99.90;;;;;;6209407;23;20062;-80
2021/05/05 06:03:09;;;;;;;29.27;4.90;;;14.20;99.90;;;;;;6210161;23;20093;-80
2021/05/05 06:05:35;;;;;;;15.13;4.53;;;14.40;99.90;;;;;;6210791;23;20000;-83
2021/05/05 06:08:05;;;;;;;14.73;3.78;;;14.60;99.90;;;;;;6213406;23;20428;-80
2021/05/05 06:10:31;;;;;;;6.68;2.95;;;14.80;99.90;;;;;;6211616;23;20384;-80
2021/05/05 06:12:57;;;;;;;8.65;2.53;;;14.90;99.90;;;;;;6213461;23;19996;-81
2021/05/05 06:15:23;;;;;;;9.77;3.78;;;15.00;99.90;;;;;;6213171;23;20007;-81
2021/05/05 06:17:49;;;;;;;11.60;3.00;;;15.10;99.90;;;;;;6213471;23;20019;-80
2021/05/05 06:20:15;;;;;;;16.08;4.43;;;15.10;99.90;;;;;;6212710;23;20000;-82
2021/05/05 06:22:42;;;;;;;17.97;5.17;;;15.10;99.90;;;;;;6213082;23;20008;-80
2021/05/05 06:25:08;;;;;;;35.03;9.55;;;15.20;99.90;;;;;;6213029;23;20003;-83
2021/05/05 06:27:35;;;;;;;70.15;18.17;;;15.20;99.90;;;;;;6213303;23;20013;-84
2021/05/05 06:30:01;;;;;;;17.65;5.75;;;15.30;99.90;;;;;;6213248;23;20327;-82
2021/05/05 06:32:27;;;;;;;11.02;3.33;;;15.30;99.90;;;;;;6211954;23;20024;-84
2021/05/05 06:34:53;;;;;;;12.10;3.78;;;15.40;99.90;;;;;;6212282;23;20367;-82
2021/05/05 06:37:19;;;;;;;11.05;2.42;;;15.50;99.90;;;;;;6214159;23;19997;-85
2021/05/05 06:39:45;;;;;;;9.13;2.95;;;15.60;99.90;;;;;;6213144;23;20197;-83
2021/05/05 06:42:11;;;;;;;18.50;2.83;;;15.70;99.90;;;;;;6214891;23;20044;-81
2021/05/05 06:44:36;;;;;;;10.57;2.90;;;15.70;99.90;;;;;;6213462;23;20433;-88
2021/05/05 06:47:02;;;;;;;9.95;2.40;;;15.70;99.90;;;;;;6211164;23;20013;-86
2021/05/05 06:49:29;;;;;;;14.05;3.20;;;15.90;99.90;;;;;;6210616;23;20324;-87
2021/05/05 06:51:55;;;;;;;7.18;2.75;;;16.20;99.90;;;;;;6212909;23;20511;-88
2021/05/05 06:54:21;;;;;;;13.80;3.00;;;16.60;99.90;;;;;;6212365;23;20033;-88
2021/05/05 06:56:47;;;;;;;11.75;2.65;;;17.00;99.90;;;;;;6212838;23;20088;-87
2021/05/05 06:59:12;;;;;;;10.52;2.67;;;17.20;99.90;;;;;;6212222;23;19996;-87
2021/05/05 07:01:39;;;;;;;13.20;2.72;;;17.00;99.90;;;;;;6213038;23;20009;-86
2021/05/05 07:04:06;;;;;;;;;;;16.80;99.90;;;;;;6214009;23;20007;-87
2021/05/05 07:06:32;;;;;;;10.60;3.20;;;16.70;99.90;;;;;;6212144;23;20382;-86
2021/05/05 07:08:58;;;;;;;12.97;2.83;;;16.60;99.90;;;;;;6213140;23;20291;-88
2021/05/05 07:11:25;;;;;;;6.93;2.47;;;16.40;99.90;;;;;;6213958;23;20429;-87
2021/05/05 07:13:50;;;;;;;12.90;3.65;;;16.40;99.90;;;;;;6213399;23;20004;-87
2021/05/05 07:16:16;;;;;;;4.88;2.72;;;16.50;99.90;;;;;;6213726;23;20005;-87
2021/05/05 07:18:42;;;;;;;7.88;3.22;;;16.60;99.90;;;;;;6212302;23;20009;-89
2021/05/05 07:21:07;;;;;;;9.73;2.80;;;16.80;99.90;;;;;;6212129;23;20440;-87
2021/05/05 07:23:33;;;;;;;9.35;3.03;;;17.00;99.90;;;;;;6213897;23;20012;-88
2021/05/05 07:25:59;;;;;;;9.32;2.67;;;17.20;99.90;;;;;;6212712;23;20020;-90
2021/05/05 07:28:24;;;;;;;12.40;2.92;;;17.60;99.90;;;;;;6213468;23;20580;-86
2021/05/05 07:30:50;;;;;;;15.05;3.55;;;17.80;99.90;;;;;;6186941;23;20030;-86
2021/05/05 07:33:16;;;;;;;11.27;2.75;;;18.10;99.90;;;;;;6211612;23;20036;-87
2021/05/05 07:35:52;;;;;;;15.18;3.00;;;18.20;99.90;;;;;;6212738;23;21346;-88
2021/05/05 07:48:28;;;;;;;13.50;2.92;;;17.70;99.90;;;;;;6215391;23;20471;-90
2021/05/05 07:50:55;;;;;;;14.80;2.95;;;17.70;99.90;;;;;;6212829;23;20005;-84
2021/05/05 07:53:22;;;;;;;9.20;2.50;;;17.50;99.90;;;;;;6209298;23;20004;-85
2021/05/05 07:55:48;;;;;;;10.45;3.00;;;17.30;99.90;;;;;;6185916;23;20008;-84
2021/05/05 07:58:14;;;;;;;6.65;2.95;;;17.20;99.90;;;;;;6210634;23;20478;-81
2021/05/05 08:00:40;;;;;;;8.40;3.30;;;17.20;99.90;;;;;;6210068;23;20013;-82
2021/05/05 08:03:06;;;;;;;10.30;3.53;;;17.20;99.90;;;;;;6211441;23;20000;-82
2021/05/05 08:05:32;;;;;;;10.10;2.75;;;17.40;99.90;;;;;;6210573;23;20367;-82
2021/05/05 08:07:58;;;;;;;12.63;3.42;;;17.50;99.90;;;;;;6211845;23;20015;-83
2021/05/05 08:10:24;;;;;;;7.85;3.15;;;17.60;99.90;;;;;;6210080;23;20486;-84
2021/05/05 08:12:49;;;;;;;8.52;3.05;;;17.70;99.90;;;;;;6211950;23;20058;-85
2021/05/05 08:15:16;;;;;;;10.07;3.40;;;17.70;99.90;;;;;;6210190;23;20051;-82
2021/05/05 08:17:43;;;;;;;12.67;3.33;;;17.70;99.90;;;;;;6211889;23;20007;-84
2021/05/05 08:20:10;;;;;;;10.15;2.50;;;17.70;99.90;;;;;;6184433;23;20111;-84
2021/05/05 08:22:35;;;;;;;16.70;2.63;;;17.60;99.90;;;;;;6211059;23;20021;-83
2021/05/05 08:25:02;;;;;;;8.02;2.60;;;17.70;99.90;;;;;;6209935;23;20008;-82
2021/05/05 08:27:28;;;;;;;9.32;2.97;;;17.50;99.90;;;;;;6210246;23;20013;-84
2021/05/05 08:29:53;;;;;;;11.00;3.25;;;17.50;99.90;;;;;;6209968;23;20380;-83
2021/05/05 08:32:20;;;;;;;12.27;3.25;;;17.50;99.90;;;;;;6211350;23;20009;-83
2021/05/05 08:34:46;;;;;;;12.80;2.60;;;17.40;99.90;;;;;;6209200;23;20399;-81
2021/05/05 08:37:12;;;;;;;10.45;3.22;;;17.50;99.90;;;;;;6211232;23;20007;-85
2021/05/05 08:39:38;;;;;;;9.53;2.77;;;17.60;99.90;;;;;;6211259;23;20059;-83
2021/05/05 08:42:05;;;;;;;8.38;2.65;;;17.40;99.90;;;;;;6210618;23;20503;-82
2021/05/05 08:44:32;;;;;;;7.28;2.70;;;17.50;99.90;;;;;;6210183;23;20077;-82
2021/05/05 08:46:58;;;;;;;9.57;2.42;;;17.40;99.90;;;;;;6209812;23;20016;-83
2021/05/05 08:49:24;;;;;;;9.10;3.70;;;17.50;99.90;;;;;;6210095;23;20005;-83
2021/05/05 08:51:50;;;;;;;7.00;2.33;;;17.50;99.90;;;;;;6209841;23;20011;-84
2021/05/05 08:54:17;;;;;;;7.10;2.42;;;17.60;99.80;;;;;;6208274;23;20005;-83
2021/05/05 08:56:43;;;;;;;5.57;2.40;;;17.60;99.90;;;;;;6208200;23;20059;-83
2021/05/05 08:59:12;;;;;;;15.50;3.80;;;17.80;99.90;;;;;;6207605;23;20024;-83
2021/05/05 09:01:38;;;;;;;6.07;2.45;;;17.80;99.90;;;;;;6210123;23;20263;-85
2021/05/05 09:04:05;;;;;;;8.45;2.72;;;17.90;99.30;;;;;;6208161;23;20120;-83
2021/05/05 09:06:44;;;;;;;8.27;2.90;;;17.90;99.90;;;;;;6208463;23;20290;-82
2021/05/05 09:09:10;;;;;;;11.80;2.70;;;18.00;99.50;;;;;;6208457;23;20035;-85
2021/05/05 09:11:46;;;;;;;12.02;2.72;;;18.10;99.90;;;;;;6183307;23;20004;-85
2021/05/05 09:14:12;;;;;;;12.20;2.70;;;18.10;98.60;;;;;;6210174;23;20062;-82
2021/05/05 09:16:38;;;;;;;4.95;2.00;;;18.10;99.20;;;;;;6209807;23;20005;-85
2021/05/05 09:19:06;;;;;;;7.80;2.10;;;18.20;98.30;;;;;;6209722;23;20385;-84
2021/05/05 09:21:52;;;;;;;5.22;2.13;;;18.10;99.50;;;;;;6182878;23;20008;-84
2021/05/05 09:24:22;;;;;;;10.30;2.63;;;18.10;97.30;;;;;;6207472;23;20057;-82
2021/05/05 09:26:50;;;;;;;12.02;2.88;;;18.20;98.90;;;;;;6209042;23;20015;-82
2021/05/05 09:29:16;;;;;;;10.05;2.90;;;18.30;98.60;;;;;;6209207;23;20004;-82
2021/05/05 09:31:43;;;;;;;7.15;1.83;;;18.30;96.20;;;;;;6211054;23;20001;-83
2021/05/05 09:34:10;;;;;;;5.80;2.13;;;18.30;96.80;;;;;;6209089;23;20506;-82
2021/05/05 09:36:39;;;;;;;6.55;2.08;;;18.30;98.10;;;;;;6210751;23;20039;-82
2021/05/05 09:39:08;;;;;;;13.93;2.30;;;18.40;96.30;;;;;;6210802;23;20007;-82
2021/05/05 09:41:36;;;;;;;5.07;2.50;;;18.50;97.30;;;;;;6211222;23;20440;-83
2021/05/05 09:44:07;;;;;;;10.00;2.80;;;18.60;99.90;;;;;;6210645;23;20000;-82
2021/05/05 09:46:44;;;;;;;8.50;2.08;;;18.60;97.60;;;;;;6209248;23;20154;-83
2021/05/05 09:49:30;;;;;;;4.90;2.15;;;18.80;96.90;;;;;;6210374;23;20475;-83
2021/05/05 09:51:58;;;;;;;12.18;2.42;;;18.70;96.70;;;;;;6208868;23;20004;-82
2021/05/05 09:54:31;;;;;;;6.03;2.15;;;18.60;95.80;;;;;;6210939;23;20003;-83
2021/05/05 09:57:11;;;;;;;8.80;1.92;;;18.70;96.10;;;;;;6210516;23;20072;-81
2021/05/05 09:59:56;;;;;;;5.93;2.47;;;18.70;96.80;;;;;;6210484;23;20215;-81
2021/05/05 10:02:24;;;;;;;8.38;2.20;;;18.80;96.50;;;;;;6212481;23;20001;-84
2021/05/05 10:05:17;;;;;;;8.05;2.03;;;18.90;96.40;;;;;;6212493;23;20036;-84
2021/05/05 10:08:04;;;;;;;8.10;2.10;;;18.80;96.40;;;;;;6185134;23;20009;-84
2021/05/05 10:10:31;;;;;;;7.07;2.00;;;18.80;96.80;;;;;;6186884;23;20009;-84
2021/05/05 10:13:08;;;;;;;6.90;2.17;;;18.80;97.50;;;;;;6213700;23;20003;-83
2021/05/05 10:15:37;;;;;;;7.45;2.53;;;18.90;96.70;;;;;;6214211;23;20008;-84
2021/05/05 10:18:05;;;;;;;7.95;2.35;;;18.90;96.10;;;;;;6214588;23;20001;-84
2021/05/05 10:20:31;;;;;;;9.15;2.30;;;18.90;96.70;;;;;;6214600;23;20004;-86
2021/05/05 10:23:02;;;;;;;5.18;2.22;;;18.70;96.50;;;;;;6215112;23;20001;-86
2021/05/05 10:25:28;;;;;;;8.50;2.17;;;18.50;96.10;;;;;;6212740;23;20005;-86
2021/05/05 10:27:55;;;;;;;9.75;2.45;;;18.70;96.70;;;;;;6188021;23;20032;-87
2021/05/05 10:30:29;;;;;;;6.57;2.70;;;18.90;99.50;;;;;;6214083;23;20079;-88
2021/05/05 10:32:56;;;;;;;5.95;1.98;;;19.20;96.00;;;;;;6212846;23;20356;-86
2021/05/05 10:35:23;;;;;;;6.43;2.05;;;19.30;94.30;;;;;;6213489;23;20017;-84
2021/05/05 10:37:59;;;;;;;10.05;2.28;;;19.30;93.10;;;;;;6214194;23;20027;-85
2021/05/05 10:40:27;;;;;;;8.00;2.35;;;19.30;91.00;;;;;;6212671;23;19996;-85
2021/05/05 10:43:11;;;;;;;7.90;2.60;;;19.40;93.00;;;;;;6214299;23;20004;-85
2021/05/05 10:45:40;;;;;;;5.03;1.67;;;19.70;91.20;;;;;;6213796;23;20505;-85
2021/05/05 10:48:09;;;;;;;7.82;1.98;;;20.20;91.30;;;;;;6187331;23;20012;-88
2021/05/05 10:51:00;;;;;;;4.10;1.70;;;20.40;91.10;;;;;;6213063;23;20047;-87
2021/05/05 10:53:38;;;;;;;6.70;2.00;;;21.00;90.90;;;;;;6186250;23;20510;-89
2021/05/05 10:56:23;;;;;;;3.90;1.77;;;21.20;87.40;;;;;;6215286;23;20008;-86
2021/05/05 10:58:59;;;;;;;4.57;1.58;;;21.50;86.40;;;;;;6211091;23;20005;-88
2021/05/05 11:01:48;;;;;;;9.48;1.80;;;21.50;82.70;;;;;;6212647;23;20035;-90
2021/05/05 11:04:14;;;;;;;8.05;1.85;;;21.30;83.90;;;;;;6218750;23;20028;-88
2021/05/05 11:06:42;;;;;;;8.77;2.33;;;20.80;87.30;;;;;;6211819;23;20048;-87
2021/05/05 11:09:16;;;;;;;9.55;2.65;;;20.60;87.40;;;;;;6212645;23;20187;-88
2021/05/05 11:11:45;;;;;;;6.65;2.50;;;20.30;90.50;;;;;;6212391;23;20015;-91
2021/05/05 11:14:23;;;;;;;5.78;2.17;;;20.60;90.40;;;;;;6215517;23;20001;-89
2021/05/05 11:16:52;;;;;;;4.65;2.22;;;20.50;90.00;;;;;;6211557;23;20004;-89
2021/05/05 11:19:43;;;;;;;5.90;2.13;;;20.00;91.00;;;;;;6214763;23;20462;-91
2021/05/05 11:22:19;;;;;;;5.60;2.17;;;19.40;92.00;;;;;;6214163;23;20325;-89
2021/05/05 11:24:46;;;;;;;10.65;2.45;;;19.30;92.70;;;;;;6213497;23;20055;-88
2021/05/05 11:27:12;;;;;;;;;;;19.30;92.50;;;;;;6213742;23;20023;-86
2021/05/05 11:29:50;;;;;;;9.30;2.85;;;18.80;93.10;;;;;;6215526;23;19900;-90
2021/05/05 11:32:26;;;;;;;10.00;2.53;;;18.60;94.20;;;;;;6215068;23;20180;-91
2021/05/05 11:34:52;;;;;;;10.55;2.40;;;18.60;95.50;;;;;;6214062;23;20009;-94
2021/05/05 11:37:22;;;;;;;9.05;2.60;;;18.50;94.00;;;;;;6214599;23;20000;-93
2021/05/05 11:39:55;;;;;;;7.22;2.65;;;18.40;94.80;;;;;;6213664;23;20008;-85
2021/05/05 11:42:24;;;;;;;12.10;2.90;;;18.20;95.10;;;;;;6188679;23;20000;-89
2021/05/05 11:44:51;;;;;;;13.60;3.25;;;18.10;95.10;;;;;;6214683;23;20450;-88
2021/05/05 11:47:20;;;;;;;7.40;2.42;;;18.10;95.70;;;;;;6215242;23;20024;-88
2021/05/05 11:49:50;;;;;;;9.02;2.25;;;18.20;95.40;;;;;;6215289;23;20011;-87
2021/05/05 11:52:27;;;;;;;3.55;2.03;;;18.30;95.50;;;;;;6213760;23;20079;-86
2021/05/05 11:54:59;;;;;;;7.93;2.30;;;18.20;96.00;;;;;;6188462;23;20431;-88
2021/05/05 11:57:30;;;;;;;10.13;2.60;;;18.30;96.60;;;;;;6213859;23;20420;-87
2021/05/05 12:00:09;;;;;;;11.38;2.30;;;18.50;96.00;;;;;;6211361;23;20015;-85
2021/05/05 12:02:48;;;;;;;9.63;2.28;;;18.70;95.60;;;;;;6212022;23;20493;-86
2021/05/05 12:05:22;;;;;;;7.60;2.55;;;18.80;95.40;;;;;;6212920;23;20430;-90
2021/05/05 12:08:15;;;;;;;4.93;2.33;;;18.60;94.90;;;;;;6213375;23;20086;-89
2021/05/05 12:10:50;;;;;;;13.55;2.25;;;18.50;95.70;;;;;;6214480;23;20374;-85
2021/05/05 12:13:21;;;;;;;9.77;2.95;;;18.80;95.40;;;;;;6216212;23;20009;-88
2021/05/05 12:16:11;;;;;;;7.70;1.80;;;18.90;95.40;;;;;;6217208;23;20003;-89
2021/05/05 12:18:48;;;;;;;3.70;1.70;;;18.90;96.10;;;;;;6215500;23;20083;-86
2021/05/05 12:21:20;;;;;;;6.78;2.35;;;18.80;96.60;;;;;;6189126;23;20008;-87
2021/05/05 12:23:48;;;;;;;9.82;2.28;;;19.00;97.30;;;;;;6188802;23;20016;-87
2021/05/05 12:26:30;;;;;;;4.75;2.00;;;18.90;97.10;;;;;;6213062;23;20355;-87
2021/05/05 12:29:01;;;;;;;4.57;1.70;;;19.20;97.30;;;;;;6187763;23;20051;-87
2021/05/05 12:31:29;;;;;;;9.13;1.85;;;19.20;95.80;;;;;;6213474;23;20005;-87
2021/05/05 12:33:57;;;;;;;5.63;1.90;;;19.10;95.70;;;;;;6213176;23;20226;-87
2021/05/05 12:36:29;;;;;;;3.78;1.45;;;19.20;95.10;;;;;;6213026;23;20012;-84
2021/05/05 12:38:59;;;;;;;4.65;1.70;;;19.50;95.00;;;;;;6214483;23;20047;-86
2021/05/05 12:41:27;;;;;;;5.68;1.70;;;19.70;93.40;;;;;;6215837;23;19993;-90
2021/05/05 12:43:56;;;;;;;6.07;1.73;;;19.80;93.30;;;;;;6214784;23;20008;-87
2021/05/05 12:46:27;;;;;;;6.60;1.50;;;19.90;91.80;;;;;;6213281;23;20012;-86
2021/05/05 12:48:54;;;;;;;5.03;1.77;;;19.90;92.80;;;;;;6213944;23;20000;-84
2021/05/05 12:51:25;;;;;;;10.27;1.73;;;19.80;91.50;;;;;;6217209;23;20005;-90
2021/05/05 12:53:57;;;;;;;8.07;2.33;;;19.80;91.70;;;;;;6221221;23;19997;-93
2021/05/05 12:56:45;;;;;;;3.47;1.60;;;20.30;92.70;;;;;;6222449;23;20135;-91
2021/05/05 12:59:29;;;;;;;9.10;1.60;;;21.50;88.30;;;;;;6193155;23;20005;-85